Terminal Aerodrome Forecast
Issued by NWS

Home | Current Version | Previous Version | Text Only | Print | Product List | Glossary On
Versions: 1 2 3 4 5 6 7 8 9 10 11 12
760
FTUS44 KTSA 231720
TAFXNA
TAF
KXNA 231720Z 2318/2418 22007KT P6SM SCT250
     FM241500 20013G20KT P6SM SCT250=

USA.gov is the U.S. government's official web portal to all federal, state and local government web resources and services.